Time;durP1;ratioP1;P1;durP2;ratioP2;P2;SDS_P1;SDS_P2;PMS_P1;PMS_P2;Temp;Humidity;BMP_temperature;BMP_pressure;BME280_temperature;BME280_humidity;BME280_pressure;Samples;Min_cycle;Max_cycle;Signal;HPM_P1;HPM_P2
2020/12/05 00:02:11;;;;;;;25.93;21.33;;;2.20;99.90;;;;;;5016208;28;20225;-70
2020/12/05 00:04:37;;;;;;;25.60;20.90;;;2.20;99.90;;;;;;5037314;28;20192;-70
2020/12/05 00:07:03;;;;;;;31.50;21.20;;;2.10;99.90;;;;;;5035343;28;20704;-70
2020/12/05 00:09:28;;;;;;;24.30;19.77;;;2.10;99.90;;;;;;5037601;28;20237;-70
2020/12/05 00:11:54;;;;;;;24.57;17.67;;;2.20;99.90;;;;;;5038059;28;20200;-70
2020/12/05 00:14:20;;;;;;;24.60;18.30;;;2.20;99.90;;;;;;5041438;28;20554;-70
2020/12/05 00:16:50;;;;;;;23.30;18.27;;;2.20;99.90;;;;;;5040273;28;20184;-70
2020/12/05 00:19:15;;;;;;;25.30;18.70;;;2.20;99.90;;;;;;5041797;28;20192;-70
2020/12/05 00:21:41;;;;;;;23.20;17.57;;;2.20;99.90;;;;;;5023086;28;20237;-70
2020/12/05 00:24:06;;;;;;;27.50;17.80;;;2.20;99.90;;;;;;5040190;28;20267;-70
2020/12/05 00:26:32;;;;;;;23.53;18.27;;;2.30;99.90;;;;;;5032141;28;20184;-70
2020/12/05 00:28:58;;;;;;;24.57;17.80;;;2.30;99.90;;;;;;5037047;28;20211;-70
2020/12/05 00:31:23;;;;;;;23.10;17.87;;;2.20;99.90;;;;;;5043914;28;20254;-70
2020/12/05 00:33:50;;;;;;;21.73;17.37;;;2.30;99.90;;;;;;5014933;28;20205;-70
2020/12/05 00:36:17;;;;;;;23.33;18.03;;;2.40;99.90;;;;;;5039774;28;20232;-70
2020/12/05 00:38:43;;;;;;;24.07;19.17;;;2.40;99.90;;;;;;5035974;28;20625;-70
2020/12/05 00:41:10;;;;;;;23.57;17.83;;;2.40;99.90;;;;;;5043573;28;20723;-70
2020/12/05 00:43:36;;;;;;;21.60;18.53;;;2.40;99.90;;;;;;5039473;28;20179;-70
2020/12/05 00:46:05;;;;;;;22.37;18.07;;;2.40;99.90;;;;;;5038542;28;20179;-70
2020/12/05 00:48:31;;;;;;;23.47;18.10;;;2.30;99.90;;;;;;5047096;28;20200;-70
2020/12/05 00:50:57;;;;;;;24.03;17.90;;;2.40;99.90;;;;;;5045078;28;20192;-69
2020/12/05 00:53:23;;;;;;;23.43;18.30;;;2.40;99.90;;;;;;5054607;28;20219;-69
2020/12/05 00:55:49;;;;;;;22.50;16.60;;;2.40;99.90;;;;;;5049893;28;20212;-69
2020/12/05 00:58:14;;;;;;;23.50;17.63;;;2.50;99.90;;;;;;5049077;28;20190;-69
2020/12/05 01:00:41;;;;;;;23.07;18.33;;;2.50;99.90;;;;;;5052693;28;20185;-69
2020/12/05 01:03:07;;;;;;;23.70;18.07;;;2.50;99.90;;;;;;5042258;28;20211;-69
2020/12/05 01:05:33;;;;;;;29.23;17.83;;;2.50;99.90;;;;;;5055601;28;20206;-69
2020/12/05 01:08:00;;;;;;;20.87;17.87;;;2.50;99.90;;;;;;5048020;28;20224;-70
2020/12/05 01:10:26;;;;;;;21.87;17.97;;;2.60;99.90;;;;;;5054060;28;20189;-70
2020/12/05 01:12:52;;;;;;;23.97;17.73;;;2.50;99.90;;;;;;5046209;28;20204;-69
2020/12/05 01:15:18;;;;;;;21.43;17.80;;;2.50;99.90;;;;;;5044528;28;20284;-69
2020/12/05 01:17:43;;;;;;;21.97;17.67;;;2.50;99.90;;;;;;5049207;28;20293;-69
2020/12/05 01:20:09;;;;;;;21.47;18.20;;;2.50;99.90;;;;;;5044356;28;20180;-69
2020/12/05 01:22:34;;;;;;;24.30;18.40;;;2.60;99.90;;;;;;5041967;28;20203;-69
2020/12/05 01:25:00;;;;;;;22.67;18.53;;;2.60;99.90;;;;;;5051678;28;20575;-70
2020/12/05 01:27:26;;;;;;;22.90;18.73;;;2.60;99.90;;;;;;5050500;28;20185;-69
2020/12/05 01:29:51;;;;;;;25.77;18.80;;;2.60;99.90;;;;;;5052025;28;20201;-69
2020/12/05 01:32:17;;;;;;;25.73;17.73;;;2.60;99.90;;;;;;5042354;28;20219;-69
2020/12/05 01:34:43;;;;;;;23.67;18.87;;;2.60;99.90;;;;;;5049582;28;20224;-70
2020/12/05 01:37:09;;;;;;;21.93;17.37;;;2.60;99.90;;;;;;5036880;28;20698;-70
2020/12/05 01:39:35;;;;;;;23.50;18.27;;;2.60;99.90;;;;;;5039104;28;20214;-70
2020/12/05 01:42:02;;;;;;;21.27;18.30;;;2.60;99.90;;;;;;5036355;28;20282;-70
2020/12/05 01:44:29;;;;;;;23.87;18.33;;;2.60;99.90;;;;;;5050361;28;20727;-69
2020/12/05 01:46:55;;;;;;;23.07;18.17;;;2.60;99.90;;;;;;5037782;28;20228;-70
2020/12/05 01:49:22;;;;;;;21.53;18.17;;;2.60;99.90;;;;;;5039038;28;20209;-70
2020/12/05 01:51:49;;;;;;;24.70;18.83;;;2.60;99.90;;;;;;5051089;28;20893;-70
2020/12/05 01:54:14;;;;;;;22.13;19.17;;;2.60;99.90;;;;;;5038014;28;20265;-70
2020/12/05 01:56:42;;;;;;;25.60;20.40;;;2.70;99.90;;;;;;5040252;28;20260;-70
2020/12/05 01:59:08;;;;;;;25.80;19.90;;;2.70;99.90;;;;;;5039583;28;20647;-70
2020/12/05 02:01:34;;;;;;;24.50;20.30;;;2.70;99.90;;;;;;5052407;28;20179;-70
2020/12/05 02:04:02;;;;;;;23.33;19.73;;;2.80;99.90;;;;;;5043812;28;20186;-70
2020/12/05 02:06:50;;;;;;;25.40;20.23;;;2.80;99.90;;;;;;5041907;28;20297;-70
2020/12/05 02:09:24;;;;;;;24.93;21.90;;;2.90;99.90;;;;;;5045150;28;20201;-70
2020/12/05 02:12:04;;;;;;;26.90;21.80;;;2.90;99.90;;;;;;5045986;28;20609;-70
2020/12/05 02:14:31;;;;;;;26.50;22.33;;;2.90;99.90;;;;;;5041218;28;20182;-70
2020/12/05 02:17:04;;;;;;;25.43;22.03;;;2.90;99.90;;;;;;5031785;28;20179;-70
2020/12/05 02:19:53;;;;;;;26.87;22.73;;;2.90;99.90;;;;;;5020317;28;20201;-70
2020/12/05 02:22:25;;;;;;;25.63;22.70;;;2.80;99.90;;;;;;5040616;28;20221;-69
2020/12/05 02:24:50;;;;;;;26.80;21.43;;;2.90;99.90;;;;;;5038131;28;20195;-70
2020/12/05 02:27:17;;;;;;;25.70;22.43;;;2.90;99.90;;;;;;5037437;28;20211;-69
2020/12/05 02:29:42;;;;;;;27.87;21.33;;;2.90;99.90;;;;;;5036782;28;20214;-70
2020/12/05 02:32:08;;;;;;;23.07;20.60;;;2.80;99.90;;;;;;5045921;28;20214;-70
2020/12/05 02:34:34;;;;;;;25.83;22.90;;;2.80;99.90;;;;;;5038951;28;20190;-70
2020/12/05 02:37:10;;;;;;;23.10;20.53;;;2.70;99.90;;;;;;5035441;28;20214;-70
2020/12/05 02:39:39;;;;;;;20.93;18.67;;;2.70;99.90;;;;;;5044932;28;20249;-70
2020/12/05 02:42:05;;;;;;;20.50;18.30;;;2.70;99.90;;;;;;5040044;28;20199;-70
2020/12/05 02:44:30;;;;;;;20.57;18.37;;;2.60;99.90;;;;;;5042845;28;20189;-70
2020/12/05 02:47:00;;;;;;;20.90;18.53;;;2.50;99.90;;;;;;5034364;28;20185;-70
2020/12/05 02:49:25;;;;;;;21.67;19.17;;;2.40;99.90;;;;;;5046171;28;20219;-70
2020/12/05 02:51:51;;;;;;;22.37;17.93;;;2.30;99.90;;;;;;5041629;28;20189;-69
2020/12/05 02:54:17;;;;;;;21.17;18.50;;;2.30;99.90;;;;;;5039238;28;20188;-70
2020/12/05 02:56:42;;;;;;;20.37;17.27;;;2.20;99.90;;;;;;5041799;28;20678;-70
2020/12/05 02:59:08;;;;;;;18.97;16.97;;;2.20;99.90;;;;;;5037348;28;20209;-69
2020/12/05 03:01:33;;;;;;;17.40;15.57;;;2.10;99.90;;;;;;5037797;28;20590;-70
2020/12/05 03:03:59;;;;;;;17.87;15.97;;;2.10;99.90;;;;;;5034200;28;20270;-70
2020/12/05 03:06:25;;;;;;;17.87;15.97;;;2.10;99.90;;;;;;5037960;28;20222;-70
2020/12/05 03:08:50;;;;;;;19.00;16.13;;;2.10;99.90;;;;;;5035498;28;20208;-69
2020/12/05 03:11:16;;;;;;;17.77;15.87;;;2.00;99.90;;;;;;5038491;28;20646;-69
2020/12/05 03:13:41;;;;;;;18.80;16.90;;;1.90;99.90;;;;;;5040392;28;20240;-69
2020/12/05 03:16:07;;;;;;;19.83;17.83;;;1.90;99.90;;;;;;5037668;28;20676;-69
2020/12/05 03:18:34;;;;;;;18.20;15.97;;;1.90;99.90;;;;;;5042388;28;20256;-69
2020/12/05 03:20:59;;;;;;;18.77;16.77;;;1.80;99.90;;;;;;5038676;28;20180;-69
2020/12/05 03:23:25;;;;;;;17.57;15.67;;;1.80;99.90;;;;;;5044987;28;20187;-69
2020/12/05 03:25:56;;;;;;;18.63;16.63;;;1.80;99.90;;;;;;5040801;28;20668;-69
2020/12/05 03:28:23;;;;;;;17.07;15.27;;;1.80;99.90;;;;;;5040611;28;20202;-69
2020/12/05 03:30:49;;;;;;;18.17;14.87;;;1.80;99.90;;;;;;5040033;28;21100;-70
2020/12/05 03:33:15;;;;;;;16.70;14.83;;;1.80;99.90;;;;;;5036441;28;20208;-71
2020/12/05 03:35:40;;;;;;;15.47;13.87;;;1.80;99.90;;;;;;5038610;28;20655;-69
2020/12/05 03:38:06;;;;;;;17.20;15.50;;;1.90;99.90;;;;;;5035402;28;20200;-69
2020/12/05 03:40:31;;;;;;;17.47;15.57;;;1.90;99.90;;;;;;5048400;28;20685;-70
2020/12/05 03:42:57;;;;;;;17.87;14.33;;;1.90;99.90;;;;;;5037772;28;20186;-70
2020/12/05 03:45:22;;;;;;;17.97;15.30;;;2.00;99.90;;;;;;5040618;28;20722;-69
2020/12/05 03:47:48;;;;;;;15.57;13.63;;;1.90;99.90;;;;;;5040263;28;20289;-69
2020/12/05 03:50:14;;;;;;;15.87;14.27;;;1.90;99.90;;;;;;5042160;28;20623;-69
2020/12/05 03:52:39;;;;;;;17.00;15.30;;;1.90;99.90;;;;;;5042925;28;20256;-69
2020/12/05 03:55:05;;;;;;;17.53;15.47;;;1.80;99.90;;;;;;5041652;28;20266;-70
2020/12/05 03:57:30;;;;;;;17.83;15.90;;;1.80;99.90;;;;;;5049473;28;20596;-70
2020/12/05 03:59:56;;;;;;;18.90;16.00;;;1.70;99.90;;;;;;5047469;28;20183;-70
2020/12/05 04:02:22;;;;;;;19.13;16.97;;;1.70;99.90;;;;;;5049558;28;20207;-70
2020/12/05 04:04:47;;;;;;;19.13;17.13;;;1.70;99.90;;;;;;5045507;28;20184;-70
2020/12/05 04:07:13;;;;;;;19.83;17.73;;;1.60;99.90;;;;;;5048914;28;20935;-70
2020/12/05 04:09:38;;;;;;;20.97;18.63;;;1.60;99.90;;;;;;5046902;28;20212;-70
2020/12/05 04:12:04;;;;;;;19.67;17.23;;;1.60;99.90;;;;;;5040332;28;20261;-70
2020/12/05 04:14:29;;;;;;;20.67;17.83;;;1.60;99.90;;;;;;5037358;28;20208;-69
2020/12/05 04:16:55;;;;;;;21.23;18.30;;;1.60;99.90;;;;;;5036017;28;20176;-70
2020/12/05 04:19:21;;;;;;;20.97;18.83;;;1.50;99.90;;;;;;5035828;28;20198;-69
2020/12/05 04:21:49;;;;;;;20.63;18.43;;;1.50;99.90;;;;;;5045758;28;20180;-69
2020/12/05 04:24:15;;;;;;;21.27;18.87;;;1.50;99.90;;;;;;5035090;28;20180;-69
2020/12/05 04:26:41;;;;;;;21.70;19.27;;;1.50;99.90;;;;;;5035484;28;20736;-70
2020/12/05 04:29:06;;;;;;;24.70;19.57;;;1.50;99.90;;;;;;5033364;28;20245;-70
2020/12/05 04:31:32;;;;;;;20.57;18.37;;;1.50;99.90;;;;;;5036875;28;20262;-70
2020/12/05 04:33:58;;;;;;;20.27;18.07;;;1.50;99.90;;;;;;5038715;28;20205;-69
2020/12/05 04:36:23;;;;;;;22.10;18.07;;;1.60;99.90;;;;;;5049719;28;20186;-71
2020/12/05 04:38:49;;;;;;;18.90;16.90;;;1.60;99.90;;;;;;5035660;28;20229;-72
2020/12/05 04:41:14;;;;;;;19.47;17.47;;;1.60;99.90;;;;;;5041698;28;20205;-72
2020/12/05 04:43:41;;;;;;;20.10;17.90;;;1.60;99.90;;;;;;5046105;28;20179;-72
2020/12/05 04:46:06;;;;;;;20.37;18.00;;;1.60;99.90;;;;;;5043986;28;20184;-72
2020/12/05 04:48:33;;;;;;;22.70;20.60;;;1.60;99.90;;;;;;5039200;28;20416;-72
2020/12/05 04:51:01;;;;;;;19.40;17.43;;;1.60;99.90;;;;;;5038341;28;20191;-70
2020/12/05 04:53:27;;;;;;;18.57;16.67;;;1.70;99.90;;;;;;5018621;28;20247;-72
2020/12/05 04:55:58;;;;;;;18.63;16.73;;;1.70;99.90;;;;;;5026792;28;20178;-71
2020/12/05 04:58:24;;;;;;;18.23;16.27;;;1.70;99.90;;;;;;5037753;28;20197;-71
2020/12/05 05:00:57;;;;;;;17.60;15.73;;;1.70;99.90;;;;;;5038340;28;20181;-71
2020/12/05 05:03:25;;;;;;;17.87;16.07;;;1.70;99.90;;;;;;5035319;28;20192;-69
2020/12/05 05:05:56;;;;;;;17.53;15.73;;;1.70;99.90;;;;;;5041527;28;20561;-72
2020/12/05 05:08:26;;;;;;;16.77;15.00;;;1.80;99.90;;;;;;5035754;28;20211;-72
2020/12/05 05:11:08;;;;;;;18.53;15.87;;;1.80;99.90;;;;;;5043526;28;20196;-71
2020/12/05 05:14:00;;;;;;;17.50;15.60;;;1.80;99.90;;;;;;5041952;28;20688;-72
2020/12/05 05:16:28;;;;;;;15.97;13.30;;;1.80;99.90;;;;;;5039773;28;20188;-70
2020/12/05 05:18:54;;;;;;;16.33;13.67;;;1.90;99.90;;;;;;5026928;28;20202;-71
2020/12/05 05:21:37;;;;;;;14.53;12.80;;;2.00;99.90;;;;;;5040452;28;20291;-71
2020/12/05 05:24:12;;;;;;;14.07;12.67;;;2.00;99.90;;;;;;5040368;28;20670;-71
2020/12/05 05:26:38;;;;;;;14.80;13.30;;;2.00;99.90;;;;;;5042973;28;20190;-71
2020/12/05 05:29:04;;;;;;;14.00;12.17;;;2.00;99.90;;;;;;5037104;28;20285;-71
2020/12/05 05:31:52;;;;;;;13.17;10.30;;;2.10;99.90;;;;;;5039551;28;20273;-71
2020/12/05 05:34:20;;;;;;;10.27;9.27;;;2.20;99.90;;;;;;5038879;28;20754;-71
2020/12/05 05:36:45;;;;;;;10.13;9.13;;;2.20;99.90;;;;;;5039984;28;20201;-71
2020/12/05 05:39:13;;;;;;;9.07;8.17;;;2.20;99.90;;;;;;5047232;28;20228;-71
2020/12/05 05:41:39;;;;;;;8.97;8.07;;;2.30;99.90;;;;;;5038852;28;20684;-71
2020/12/05 05:44:11;;;;;;;12.00;9.73;;;2.30;99.90;;;;;;5041526;28;20277;-71
2020/12/05 05:46:46;;;;;;;10.77;9.67;;;2.30;99.90;;;;;;5036195;28;20188;-71
2020/12/05 05:49:13;;;;;;;9.80;8.23;;;2.30;99.90;;;;;;5043618;28;20285;-71
2020/12/05 05:51:49;;;;;;;7.73;7.03;;;2.30;99.90;;;;;;5038764;28;20670;-71
2020/12/05 05:54:16;;;;;;;9.00;8.20;;;2.30;99.90;;;;;;5037954;28;20191;-71
2020/12/05 05:56:55;;;;;;;7.27;6.57;;;2.40;99.90;;;;;;5039408;28;20184;-71
2020/12/05 05:59:22;;;;;;;8.27;7.43;;;2.40;99.90;;;;;;5037663;28;20211;-70
2020/12/05 06:01:52;;;;;;;8.47;7.57;;;2.40;99.90;;;;;;5038023;28;20184;-70
2020/12/05 06:04:45;;;;;;;10.67;8.40;;;2.40;99.90;;;;;;5034092;28;20187;-73
2020/12/05 06:07:16;;;;;;;9.57;7.50;;;2.40;99.90;;;;;;5033855;28;20185;-73
2020/12/05 06:09:44;;;;;;;7.87;7.10;;;2.40;99.90;;;;;;5049717;28;20211;-73
2020/12/05 06:12:12;;;;;;;6.63;6.13;;;2.40;99.90;;;;;;5044918;28;20268;-73
2020/12/05 06:14:41;;;;;;;6.23;5.63;;;2.30;99.90;;;;;;5039020;28;20180;-73
2020/12/05 06:17:08;;;;;;;7.17;5.33;;;2.30;99.90;;;;;;5039625;28;20549;-73
2020/12/05 06:19:34;;;;;;;9.17;5.10;;;2.30;99.90;;;;;;5043762;28;20556;-73
2020/12/05 06:22:00;;;;;;;6.03;5.33;;;2.30;99.90;;;;;;5025724;28;20234;-73
2020/12/05 06:24:56;;;;;;;9.37;5.50;;;2.30;99.90;;;;;;5050758;28;20191;-70
2020/12/05 06:27:25;;;;;;;6.70;6.10;;;2.40;99.90;;;;;;5041435;28;20179;-73
2020/12/05 06:29:51;;;;;;;6.93;5.93;;;2.30;99.90;;;;;;5034257;28;20185;-70
2020/12/05 06:32:40;;;;;;;8.47;5.70;;;2.30;99.90;;;;;;5034196;28;20194;-71
2020/12/05 06:35:25;;;;;;;6.67;5.77;;;2.30;99.90;;;;;;5044857;28;20625;-70
2020/12/05 06:37:53;;;;;;;7.17;6.17;;;2.30;99.90;;;;;;5029237;28;20206;-70
2020/12/05 06:40:19;;;;;;;6.67;6.00;;;2.40;99.90;;;;;;5042079;28;20190;-70
2020/12/05 06:42:47;;;;;;;6.00;5.47;;;2.40;99.90;;;;;;5049120;28;20193;-70
2020/12/05 06:45:25;;;;;;;7.20;6.50;;;2.40;99.90;;;;;;5043925;28;20192;-70
2020/12/05 06:47:51;;;;;;;7.00;6.30;;;2.50;99.90;;;;;;5043528;28;20215;-71
2020/12/05 06:50:34;;;;;;;8.03;5.97;;;2.40;99.90;;;;;;5033556;28;20320;-71
2020/12/05 06:53:00;;;;;;;6.87;5.87;;;2.40;99.90;;;;;;5036938;28;20212;-71
2020/12/05 06:55:32;;;;;;;6.90;6.30;;;2.40;99.90;;;;;;5040516;28;20177;-71
2020/12/05 06:58:04;;;;;;;6.73;6.10;;;2.40;99.90;;;;;;5036732;28;20604;-71
2020/12/05 07:00:35;;;;;;;7.37;6.67;;;2.40;99.90;;;;;;5039293;28;20189;-71
2020/12/05 07:03:04;;;;;;;7.70;6.17;;;2.40;99.90;;;;;;5042468;28;20310;-70
2020/12/05 07:05:35;;;;;;;7.23;6.13;;;2.40;99.90;;;;;;5021351;28;20209;-70
2020/12/05 07:08:36;;;;;;;6.80;6.10;;;2.40;99.90;;;;;;5042538;28;20336;-70
2020/12/05 07:11:02;;;;;;;6.87;6.17;;;2.40;99.90;;;;;;4956256;28;20247;-72
2020/12/05 07:13:38;;;;;;;8.57;6.53;;;2.30;99.90;;;;;;4964482;28;20751;-72
2020/12/05 07:16:26;;;;;;;7.40;6.70;;;2.30;99.90;;;;;;4960571;28;20192;-72
2020/12/05 07:18:53;;;;;;;8.47;7.67;;;2.30;99.90;;;;;;4965320;28;20204;-72
2020/12/05 07:21:19;;;;;;;11.43;9.10;;;2.30;99.90;;;;;;4963011;28;20218;-72
2020/12/05 07:23:45;;;;;;;9.50;8.03;;;2.30;99.90;;;;;;4954689;28;20279;-72
2020/12/05 07:26:11;;;;;;;6.40;5.80;;;2.40;99.90;;;;;;4943017;29;20783;-72
2020/12/05 07:28:37;;;;;;;6.60;6.00;;;2.40;99.90;;;;;;4956570;28;20244;-73
2020/12/05 07:31:04;;;;;;;7.33;6.57;;;2.40;99.90;;;;;;4964415;28;20198;-72
2020/12/05 07:33:33;;;;;;;7.27;6.67;;;2.50;99.90;;;;;;4957702;28;20237;-72
2020/12/05 07:36:06;;;;;;;10.10;8.20;;;2.50;99.90;;;;;;4957847;28;20724;-72
2020/12/05 07:38:34;;;;;;;14.03;7.67;;;2.50;99.90;;;;;;4963624;28;20218;-72
2020/12/05 07:41:17;;;;;;;7.10;6.40;;;2.50;99.90;;;;;;4957509;28;20199;-71
2020/12/05 07:43:43;;;;;;;8.17;6.23;;;2.40;99.90;;;;;;4961617;28;20283;-71
2020/12/05 07:46:11;;;;;;;6.33;5.73;;;2.40;99.90;;;;;;4977554;28;20204;-71
2020/12/05 07:48:37;;;;;;;6.87;6.03;;;2.40;99.90;;;;;;5018668;28;20216;-70
2020/12/05 07:51:09;;;;;;;7.70;5.70;;;2.40;99.90;;;;;;5025614;28;20238;-70
2020/12/05 07:53:35;;;;;;;7.63;6.10;;;2.40;99.90;;;;;;5036567;28;20713;-70
2020/12/05 07:56:21;;;;;;;7.90;5.63;;;2.40;99.90;;;;;;5037958;28;20183;-69
2020/12/05 07:58:51;;;;;;;6.10;5.50;;;2.40;99.90;;;;;;5036299;28;20205;-71
2020/12/05 08:01:39;;;;;;;8.87;8.07;;;2.40;99.90;;;;;;5039569;28;20800;-69
2020/12/05 08:04:40;;;;;;;9.17;6.03;;;2.40;99.90;;;;;;5034558;28;20304;-72
2020/12/05 08:07:33;;;;;;;8.20;5.07;;;2.40;99.90;;;;;;5033285;28;20186;-70
2020/12/05 08:09:59;;;;;;;8.10;5.70;;;2.40;99.90;;;;;;5041438;28;20295;-70
2020/12/05 08:12:44;;;;;;;7.77;6.13;;;2.40;99.90;;;;;;5045025;28;20206;-72
2020/12/05 08:15:18;;;;;;;8.70;6.70;;;2.40;99.90;;;;;;5042055;28;20201;-72
2020/12/05 08:17:45;;;;;;;8.13;7.10;;;2.40;99.90;;;;;;5044340;28;20191;-72
2020/12/05 08:20:15;;;;;;;7.97;7.20;;;2.50;99.90;;;;;;5039725;28;20188;-72
2020/12/05 08:22:42;;;;;;;14.03;10.30;;;2.50;99.90;;;;;;5039770;28;20661;-72
2020/12/05 08:25:10;;;;;;;37.83;27.53;;;2.50;99.90;;;;;;5040776;28;20180;-72
2020/12/05 08:27:36;;;;;;;12.20;9.90;;;2.50;99.90;;;;;;5044307;28;20198;-72
2020/12/05 08:30:03;;;;;;;11.97;9.27;;;2.60;99.90;;;;;;5043765;28;20188;-71
2020/12/05 08:32:29;;;;;;;13.47;10.20;;;2.70;99.90;;;;;;5038797;28;20202;-71
2020/12/05 08:35:07;;;;;;;10.27;7.23;;;2.80;99.90;;;;;;5041864;28;20181;-72
2020/12/05 08:37:33;;;;;;;7.20;6.00;;;2.90;99.90;;;;;;5040415;28;20186;-71
2020/12/05 08:39:59;;;;;;;7.07;6.17;;;3.00;99.90;;;;;;5045030;28;20241;-71
2020/12/05 08:42:26;;;;;;;6.80;6.20;;;3.00;99.90;;;;;;5041229;28;20183;-71
2020/12/05 08:44:52;;;;;;;8.33;7.13;;;3.00;99.90;;;;;;5043175;28;20188;-71
2020/12/05 08:47:18;;;;;;;9.40;8.50;;;3.00;99.90;;;;;;5046427;28;20191;-71
2020/12/05 08:49:48;;;;;;;9.87;8.97;;;2.90;99.90;;;;;;5048921;28;20546;-71
2020/12/05 08:52:15;;;;;;;11.00;9.90;;;3.00;99.90;;;;;;5041628;28;20596;-71
2020/12/05 08:54:49;;;;;;;11.13;10.03;;;2.90;99.90;;;;;;5040977;28;20186;-71
2020/12/05 08:57:15;;;;;;;10.17;9.23;;;2.90;99.90;;;;;;5041254;28;20993;-71
2020/12/05 08:59:42;;;;;;;10.13;9.23;;;3.00;99.90;;;;;;5040485;28;20217;-71
2020/12/05 09:02:09;;;;;;;12.87;10.63;;;3.00;99.90;;;;;;5040773;28;21149;-72
2020/12/05 09:04:36;;;;;;;12.60;11.40;;;3.00;99.90;;;;;;5037467;28;20242;-71
2020/12/05 09:07:16;;;;;;;12.73;11.37;;;2.90;99.90;;;;;;5034887;28;20661;-72
2020/12/05 09:09:44;;;;;;;12.07;10.80;;;2.90;99.90;;;;;;5042650;28;20264;-71
2020/12/05 09:12:11;;;;;;;13.33;12.10;;;2.90;99.90;;;;;;5043512;28;20182;-72
2020/12/05 09:14:38;;;;;;;12.23;11.03;;;2.90;99.90;;;;;;5038259;28;21006;-72
2020/12/05 09:17:19;;;;;;;11.03;9.93;;;2.90;99.90;;;;;;5023434;28;20180;-72
2020/12/05 09:19:45;;;;;;;11.47;10.47;;;3.00;99.90;;;;;;5037445;28;20205;-72
2020/12/05 09:22:33;;;;;;;11.60;10.53;;;3.00;99.90;;;;;;5040890;28;20187;-72
2020/12/05 09:25:00;;;;;;;12.13;9.87;;;3.10;99.90;;;;;;5035725;28;20182;-72
2020/12/05 09:27:42;;;;;;;11.80;10.70;;;3.10;99.90;;;;;;5044009;28;20172;-72
2020/12/05 09:30:13;;;;;;;10.60;9.67;;;3.20;99.90;;;;;;5035421;28;20187;-72
2020/12/05 09:32:46;;;;;;;12.97;11.43;;;3.30;99.90;;;;;;5018619;28;20901;-72
2020/12/05 09:35:14;;;;;;;12.27;11.07;;;3.40;99.90;;;;;;5039458;28;21069;-71
2020/12/05 09:37:40;;;;;;;13.47;12.23;;;3.50;99.90;;;;;;5046368;28;20662;-72
2020/12/05 09:40:07;;;;;;;14.50;13.10;;;3.50;99.90;;;;;;5015410;28;20199;-77
2020/12/05 09:42:33;;;;;;;14.85;13.55;;;3.60;99.90;;;;;;5045184;28;20424;-75
2020/12/05 09:44:59;;;;;;;11.23;10.17;;;3.60;99.90;;;;;;5045953;28;20226;-71
2020/12/05 09:47:24;;;;;;;12.75;11.45;;;3.60;99.90;;;;;;5047744;28;20444;-71
2020/12/05 09:49:50;;;;;;;11.10;10.10;;;3.60;99.90;;;;;;5045213;28;21072;-71
2020/12/05 09:52:16;;;;;;;11.07;10.07;;;3.70;99.90;;;;;;5040951;28;20436;-70
2020/12/05 09:54:42;;;;;;;13.17;12.07;;;3.70;99.90;;;;;;5046029;28;20413;-71
2020/12/05 09:57:10;;;;;;;13.97;12.77;;;3.70;99.90;;;;;;5049487;28;20332;-69
2020/12/05 09:59:36;;;;;;;15.83;14.33;;;3.70;99.90;;;;;;5049758;28;20201;-72
2020/12/05 10:02:03;;;;;;;19.50;17.50;;;3.80;99.90;;;;;;5046985;28;20273;-70
2020/12/05 10:04:29;;;;;;;80.63;73.47;;;3.90;99.90;;;;;;5043824;28;20187;-69
2020/12/05 10:06:55;;;;;;;46.97;43.17;;;3.80;99.90;;;;;;5042399;28;20180;-70
2020/12/05 10:09:20;;;;;;;41.37;38.03;;;3.80;99.90;;;;;;5028963;28;20593;-70
2020/12/05 10:11:46;;;;;;;38.53;35.30;;;3.70;99.90;;;;;;5041589;28;20184;-70
2020/12/05 10:14:11;;;;;;;21.40;19.40;;;3.70;99.90;;;;;;5044186;28;20623;-70
2020/12/05 10:16:37;;;;;;;23.27;21.17;;;3.70;99.90;;;;;;5024126;28;20276;-70
2020/12/05 10:19:03;;;;;;;19.03;17.13;;;3.70;99.90;;;;;;5038639;28;20225;-70
2020/12/05 10:21:29;;;;;;;18.60;16.77;;;3.70;99.90;;;;;;5033165;28;20728;-73
2020/12/05 10:23:54;;;;;;;17.83;16.03;;;3.70;99.90;;;;;;5035036;28;20194;-72
2020/12/05 10:26:20;;;;;;;18.37;16.57;;;3.80;99.90;;;;;;5034623;28;20717;-70
2020/12/05 10:28:45;;;;;;;14.90;13.40;;;3.80;99.90;;;;;;5032085;28;20577;-72
2020/12/05 10:31:11;;;;;;;13.93;12.53;;;3.70;99.90;;;;;;5038208;28;20704;-70
2020/12/05 10:33:37;;;;;;;13.67;12.37;;;3.70;99.90;;;;;;5043053;28;20292;-73
2020/12/05 10:36:02;;;;;;;17.92;16.42;;;3.70;99.90;;;;;;5033738;28;20500;-69
2020/12/05 10:38:28;;;;;;;14.33;12.97;;;3.70;99.90;;;;;;5035027;28;20196;-70
2020/12/05 10:40:57;;;;;;;13.03;11.83;;;3.70;99.90;;;;;;5043623;28;20204;-70
2020/12/05 10:43:22;;;;;;;15.17;13.60;;;3.70;99.90;;;;;;5051180;28;20186;-71
2020/12/05 10:45:48;;;;;;;15.30;13.90;;;3.70;99.90;;;;;;5051005;28;20189;-71
2020/12/05 10:48:14;;;;;;;15.73;14.23;;;3.70;99.90;;;;;;5028937;28;20250;-71
2020/12/05 10:50:40;;;;;;;18.07;15.83;;;3.70;99.90;;;;;;5042494;28;20182;-71
2020/12/05 10:53:06;;;;;;;19.03;17.27;;;3.70;99.90;;;;;;5031514;28;20701;-71
2020/12/05 10:55:31;;;;;;;19.03;17.07;;;3.80;99.90;;;;;;5041880;28;20188;-72
2020/12/05 10:57:57;;;;;;;18.13;16.17;;;3.70;99.90;;;;;;5036636;28;20218;-72
2020/12/05 11:00:23;;;;;;;15.67;14.07;;;3.70;99.90;;;;;;5043382;28;20175;-71
2020/12/05 11:02:49;;;;;;;31.13;28.07;;;3.70;99.90;;;;;;5040768;28;20187;-71
2020/12/05 11:05:15;;;;;;;27.37;24.77;;;3.70;99.90;;;;;;5053788;28;20177;-71
2020/12/05 11:07:41;;;;;;;23.15;20.73;;;3.80;99.90;;;;;;5071382;28;20427;-71
2020/12/05 11:10:06;;;;;;;23.60;21.20;;;3.80;99.90;;;;;;5067939;28;20177;-71
2020/12/05 11:12:32;;;;;;;22.27;20.00;;;3.80;99.90;;;;;;5038654;28;20604;-70
2020/12/05 11:14:57;;;;;;;21.90;19.80;;;3.90;99.90;;;;;;5035489;28;20698;-70
2020/12/05 11:17:23;;;;;;;21.20;19.10;;;4.00;99.90;;;;;;5036540;28;20646;-70
2020/12/05 11:19:49;;;;;;;21.53;19.43;;;4.10;99.90;;;;;;5037275;28;20204;-70
2020/12/05 11:22:14;;;;;;;20.40;18.40;;;4.10;99.90;;;;;;5037212;28;20175;-70
2020/12/05 11:24:40;;;;;;;21.80;19.43;;;4.10;99.90;;;;;;5041417;28;20184;-70
2020/12/05 11:27:06;;;;;;;22.27;19.93;;;4.10;99.90;;;;;;5039134;28;20201;-69
2020/12/05 11:29:32;;;;;;;21.30;19.03;;;4.10;99.90;;;;;;5023412;28;20909;-70
2020/12/05 11:31:57;;;;;;;18.20;16.47;;;4.10;99.90;;;;;;5040943;28;20630;-72
2020/12/05 11:34:23;;;;;;;18.97;17.17;;;4.20;99.90;;;;;;5055125;28;20268;-71
2020/12/05 11:36:49;;;;;;;18.13;16.40;;;4.30;99.90;;;;;;5049182;28;20604;-72
2020/12/05 11:39:14;;;;;;;18.33;16.53;;;4.30;99.90;;;;;;5044785;28;20237;-71
2020/12/05 11:41:40;;;;;;;19.23;17.33;;;4.20;99.90;;;;;;5049931;28;20204;-70
2020/12/05 11:44:06;;;;;;;22.70;17.80;;;4.20;99.90;;;;;;5052253;28;20893;-69
2020/12/05 11:46:32;;;;;;;20.83;18.60;;;4.20;99.90;;;;;;5048160;28;20183;-69
2020/12/05 11:48:58;;;;;;;21.03;16.97;;;4.20;99.90;;;;;;5037359;28;20195;-70
2020/12/05 11:51:28;;;;;;;18.80;16.90;;;4.30;99.90;;;;;;5040862;28;20319;-70
2020/12/05 11:53:54;;;;;;;18.97;17.07;;;4.30;99.90;;;;;;5035312;28;20213;-69
2020/12/05 11:56:21;;;;;;;20.03;17.93;;;4.30;99.90;;;;;;5042794;28;20179;-70
2020/12/05 11:58:47;;;;;;;19.17;17.27;;;4.20;99.90;;;;;;5034392;28;20212;-70
2020/12/05 12:01:12;;;;;;;20.73;18.33;;;4.20;99.90;;;;;;5036695;28;20188;-70
2020/12/05 12:03:38;;;;;;;37.10;20.20;;;4.20;99.90;;;;;;5031506;28;20235;-71
2020/12/05 12:06:03;;;;;;;22.13;19.63;;;4.20;99.90;;;;;;5034727;28;20191;-71
2020/12/05 12:08:29;;;;;;;22.73;20.27;;;4.20;99.90;;;;;;5043644;28;20205;-70
2020/12/05 12:10:55;;;;;;;20.90;18.67;;;4.20;99.90;;;;;;5043476;28;20257;-70
2020/12/05 12:13:21;;;;;;;20.20;18.13;;;4.20;99.90;;;;;;5038463;28;20209;-71
2020/12/05 12:15:46;;;;;;;19.97;17.97;;;4.30;99.90;;;;;;5047648;28;20838;-70
2020/12/05 12:18:12;;;;;;;21.23;18.87;;;4.30;99.90;;;;;;5037709;28;20213;-70
2020/12/05 12:20:37;;;;;;;20.30;18.17;;;4.40;99.90;;;;;;5039771;28;20178;-70
2020/12/05 12:23:03;;;;;;;18.77;16.77;;;4.30;99.90;;;;;;5042508;28;20635;-70
2020/12/05 12:25:29;;;;;;;18.63;16.73;;;4.30;99.90;;;;;;5042548;28;20175;-69
2020/12/05 12:27:54;;;;;;;21.63;19.33;;;4.20;99.90;;;;;;5034590;28;20656;-69
2020/12/05 12:30:20;;;;;;;20.63;18.60;;;4.30;99.90;;;;;;5036559;28;20182;-69
2020/12/05 12:32:46;;;;;;;21.07;19.00;;;4.30;99.90;;;;;;5031440;28;20216;-69
2020/12/05 12:35:11;;;;;;;22.90;17.23;;;4.40;99.90;;;;;;5042090;28;20184;-69
2020/12/05 12:37:37;;;;;;;19.93;17.63;;;4.30;99.90;;;;;;5045569;28;20182;-68
2020/12/05 12:40:04;;;;;;;26.40;20.27;;;4.30;99.90;;;;;;5047596;28;20808;-68
2020/12/05 12:42:30;;;;;;;37.20;21.90;;;4.30;99.90;;;;;;5038088;28;20223;-71
2020/12/05 12:44:56;;;;;;;29.40;20.43;;;4.30;99.90;;;;;;5037271;28;20548;-72
2020/12/05 12:49:57;;;;;;;21.57;18.10;;;4.40;99.90;;;;;;5043099;28;20210;-69